sensor_id;sensor_type;location;lat;lon;timestamp;P1;durP1;ratioP1;P2;durP2;ratioP2
12206;SDS011;6166;42.806;23.408;2022-09-03T03:25:33;11.95;;;8.57;;
12206;SDS011;6166;42.806;23.408;2022-09-03T03:28:01;10.70;;;6.70;;
12206;SDS011;6166;42.806;23.408;2022-09-03T03:30:29;8.63;;;7.07;;
12206;SDS011;6166;42.806;23.408;2022-09-03T03:32:56;8.67;;;6.47;;
12206;SDS011;6166;42.806;23.408;2022-09-03T03:35:23;8.53;;;6.63;;
12206;SDS011;6166;42.806;23.408;2022-09-03T03:37:50;10.53;;;7.37;;
12206;SDS011;6166;42.806;23.408;2022-09-03T03:40:18;9.80;;;6.93;;
12206;SDS011;6166;42.806;23.408;2022-09-03T03:42:45;7.67;;;5.70;;
12206;SDS011;6166;42.806;23.408;2022-09-03T03:45:12;8.83;;;6.47;;
12206;SDS011;6166;42.806;23.408;2022-09-03T03:47:39;8.07;;;6.20;;
12206;SDS011;6166;42.806;23.408;2022-09-03T03:50:05;7.27;;;5.93;;
12206;SDS011;6166;42.806;23.408;2022-09-03T03:52:33;9.60;;;7.10;;
12206;SDS011;6166;42.806;23.408;2022-09-03T03:54:59;12.47;;;7.50;;
12206;SDS011;6166;42.806;23.408;2022-09-03T03:57:28;8.90;;;7.20;;
12206;SDS011;6166;42.806;23.408;2022-09-03T03:59:57;9.60;;;6.53;;
12206;SDS011;6166;42.806;23.408;2022-09-03T04:02:23;10.60;;;8.00;;
12206;SDS011;6166;42.806;23.408;2022-09-03T04:04:50;10.90;;;7.53;;
12206;SDS011;6166;42.806;23.408;2022-09-03T04:07:17;11.33;;;6.90;;
12206;SDS011;6166;42.806;23.408;2022-09-03T04:09:43;9.33;;;6.90;;
12206;SDS011;6166;42.806;23.408;2022-09-03T04:12:11;11.87;;;7.63;;
12206;SDS011;6166;42.806;23.408;2022-09-03T04:14:39;10.83;;;6.90;;
12206;SDS011;6166;42.806;23.408;2022-09-03T04:17:06;10.07;;;8.03;;
12206;SDS011;6166;42.806;23.408;2022-09-03T04:19:33;10.20;;;6.97;;
12206;SDS011;6166;42.806;23.408;2022-09-03T04:22:00;12.47;;;8.37;;
12206;SDS011;6166;42.806;23.408;2022-09-03T04:24:27;13.73;;;7.90;;
12206;SDS011;6166;42.806;23.408;2022-09-03T04:26:54;15.17;;;8.53;;
12206;SDS011;6166;42.806;23.408;2022-09-03T04:29:20;15.33;;;8.87;;
12206;SDS011;6166;42.806;23.408;2022-09-03T04:31:48;13.27;;;8.53;;
12206;SDS011;6166;42.806;23.408;2022-09-03T04:34:33;15.20;;;9.77;;
12206;SDS011;6166;42.806;23.408;2022-09-03T04:36:59;11.43;;;7.80;;
12206;SDS011;6166;42.806;23.408;2022-09-03T04:39:26;13.63;;;8.10;;
12206;SDS011;6166;42.806;23.408;2022-09-03T04:41:53;13.33;;;8.90;;
12206;SDS011;6166;42.806;23.408;2022-09-03T04:44:19;12.87;;;8.33;;
12206;SDS011;6166;42.806;23.408;2022-09-03T04:46:46;14.23;;;8.77;;
12206;SDS011;6166;42.806;23.408;2022-09-03T04:49:15;13.20;;;9.00;;
12206;SDS011;6166;42.806;23.408;2022-09-03T04:51:41;13.20;;;9.53;;
12206;SDS011;6166;42.806;23.408;2022-09-03T04:54:09;13.97;;;9.27;;
12206;SDS011;6166;42.806;23.408;2022-09-03T04:56:37;13.30;;;8.80;;
12206;SDS011;6166;42.806;23.408;2022-09-03T04:59:05;13.70;;;8.73;;
12206;SDS011;6166;42.806;23.408;2022-09-03T05:01:35;13.13;;;8.53;;
12206;SDS011;6166;42.806;23.408;2022-09-03T05:04:03;13.20;;;7.77;;
12206;SDS011;6166;42.806;23.408;2022-09-03T05:06:32;9.60;;;6.03;;
12206;SDS011;6166;42.806;23.408;2022-09-03T05:08:59;12.57;;;7.80;;
12206;SDS011;6166;42.806;23.408;2022-09-03T05:11:27;11.33;;;7.63;;
12206;SDS011;6166;42.806;23.408;2022-09-03T05:13:54;12.90;;;8.93;;
12206;SDS011;6166;42.806;23.408;2022-09-03T05:16:23;14.70;;;8.70;;
12206;SDS011;6166;42.806;23.408;2022-09-03T05:18:52;13.93;;;7.83;;
12206;SDS011;6166;42.806;23.408;2022-09-03T05:21:20;12.03;;;7.53;;
12206;SDS011;6166;42.806;23.408;2022-09-03T05:23:49;12.70;;;8.37;;
12206;SDS011;6166;42.806;23.408;2022-09-03T05:26:18;15.20;;;7.73;;
12206;SDS011;6166;42.806;23.408;2022-09-03T05:28:46;15.97;;;8.73;;
12206;SDS011;6166;42.806;23.408;2022-09-03T05:31:13;15.47;;;8.53;;
12206;SDS011;6166;42.806;23.408;2022-09-03T05:33:42;14.80;;;8.57;;
12206;SDS011;6166;42.806;23.408;2022-09-03T05:36:10;13.43;;;8.40;;
12206;SDS011;6166;42.806;23.408;2022-09-03T05:38:38;12.97;;;7.40;;
12206;SDS011;6166;42.806;23.408;2022-09-03T05:41:07;11.07;;;7.60;;
12206;SDS011;6166;42.806;23.408;2022-09-03T05:43:35;11.27;;;7.43;;
12206;SDS011;6166;42.806;23.408;2022-09-03T05:46:03;14.97;;;8.87;;
12206;SDS011;6166;42.806;23.408;2022-09-03T05:48:32;14.93;;;8.37;;
12206;SDS011;6166;42.806;23.408;2022-09-03T05:51:00;15.17;;;8.77;;
12206;SDS011;6166;42.806;23.408;2022-09-03T05:53:29;14.20;;;8.17;;
12206;SDS011;6166;42.806;23.408;2022-09-03T05:55:58;12.77;;;7.87;;
12206;SDS011;6166;42.806;23.408;2022-09-03T05:58:30;11.43;;;7.70;;
12206;SDS011;6166;42.806;23.408;2022-09-03T06:00:57;10.80;;;7.30;;
12206;SDS011;6166;42.806;23.408;2022-09-03T06:03:24;10.57;;;7.53;;
12206;SDS011;6166;42.806;23.408;2022-09-03T06:05:50;9.33;;;6.27;;
12206;SDS011;6166;42.806;23.408;2022-09-03T06:08:19;7.57;;;5.50;;
12206;SDS011;6166;42.806;23.408;2022-09-03T06:10:56;7.00;;;5.60;;
12206;SDS011;6166;42.806;23.408;2022-09-03T06:13:23;8.93;;;5.73;;
12206;SDS011;6166;42.806;23.408;2022-09-03T06:15:56;5.00;;;4.50;;
12206;SDS011;6166;42.806;23.408;2022-09-03T06:18:23;7.53;;;5.13;;
12206;SDS011;6166;42.806;23.408;2022-09-03T06:20:53;6.13;;;5.30;;
12206;SDS011;6166;42.806;23.408;2022-09-03T06:23:20;36.60;;;21.93;;
12206;SDS011;6166;42.806;23.408;2022-09-03T06:25:47;47.07;;;29.27;;
12206;SDS011;6166;42.806;23.408;2022-09-03T06:28:24;54.20;;;33.30;;
12206;SDS011;6166;42.806;23.408;2022-09-03T06:30:51;71.70;;;46.97;;
12206;SDS011;6166;42.806;23.408;2022-09-03T06:33:19;63.37;;;38.93;;
12206;SDS011;6166;42.806;23.408;2022-09-03T06:35:51;51.83;;;33.63;;
12206;SDS011;6166;42.806;23.408;2022-09-03T06:38:21;20.40;;;13.50;;
12206;SDS011;6166;42.806;23.408;2022-09-03T06:40:50;11.27;;;8.73;;
12206;SDS011;6166;42.806;23.408;2022-09-03T06:43:18;10.27;;;7.00;;
12206;SDS011;6166;42.806;23.408;2022-09-03T06:45:51;10.53;;;7.33;;
12206;SDS011;6166;42.806;23.408;2022-09-03T06:48:20;9.23;;;7.63;;
12206;SDS011;6166;42.806;23.408;2022-09-03T06:50:56;9.00;;;6.83;;
12206;SDS011;6166;42.806;23.408;2022-09-03T06:56:05;5.20;;;4.10;;
12206;SDS011;6166;42.806;23.408;2022-09-03T06:58:33;5.60;;;5.00;;
12206;SDS011;6166;42.806;23.408;2022-09-03T07:01:02;8.33;;;6.20;;
12206;SDS011;6166;42.806;23.408;2022-09-03T07:03:30;6.60;;;5.03;;
12206;SDS011;6166;42.806;23.408;2022-09-03T07:06:01;7.73;;;5.23;;
12206;SDS011;6166;42.806;23.408;2022-09-03T07:08:29;6.23;;;4.73;;
12206;SDS011;6166;42.806;23.408;2022-09-03T07:10:56;4.93;;;4.30;;
12206;SDS011;6166;42.806;23.408;2022-09-03T07:13:25;5.40;;;4.33;;
12206;SDS011;6166;42.806;23.408;2022-09-03T07:15:59;4.70;;;3.63;;
12206;SDS011;6166;42.806;23.408;2022-09-03T07:18:26;4.20;;;3.80;;
12206;SDS011;6166;42.806;23.408;2022-09-03T07:20:56;4.57;;;3.63;;
12206;SDS011;6166;42.806;23.408;2022-09-03T07:23:24;4.73;;;3.87;;
12206;SDS011;6166;42.806;23.408;2022-09-03T07:25:52;4.37;;;3.60;;
12206;SDS011;6166;42.806;23.408;2022-09-03T07:28:19;4.63;;;4.07;;
12206;SDS011;6166;42.806;23.408;2022-09-03T07:30:48;4.73;;;3.97;;
12206;SDS011;6166;42.806;23.408;2022-09-03T07:33:15;3.43;;;3.13;;
12206;SDS011;6166;42.806;23.408;2022-09-03T07:35:42;6.47;;;3.47;;
12206;SDS011;6166;42.806;23.408;2022-09-03T07:38:09;4.10;;;3.40;;
12206;SDS011;6166;42.806;23.408;2022-09-03T07:40:36;4.77;;;4.23;;
12206;SDS011;6166;42.806;23.408;2022-09-03T07:43:03;5.00;;;3.63;;
12206;SDS011;6166;42.806;23.408;2022-09-03T07:45:30;4.67;;;3.73;;
12206;SDS011;6166;42.806;23.408;2022-09-03T07:47:58;4.53;;;3.57;;
12206;SDS011;6166;42.806;23.408;2022-09-03T07:50:25;4.17;;;3.47;;
12206;SDS011;6166;42.806;23.408;2022-09-03T07:52:55;4.53;;;4.13;;
12206;SDS011;6166;42.806;23.408;2022-09-03T07:55:23;5.77;;;4.20;;
12206;SDS011;6166;42.806;23.408;2022-09-03T07:57:54;6.23;;;3.73;;
12206;SDS011;6166;42.806;23.408;2022-09-03T08:00:23;5.30;;;4.30;;
12206;SDS011;6166;42.806;23.408;2022-09-03T08:02:50;5.40;;;4.63;;
12206;SDS011;6166;42.806;23.408;2022-09-03T08:05:19;6.03;;;4.70;;
12206;SDS011;6166;42.806;23.408;2022-09-03T08:07:46;4.03;;;3.63;;
12206;SDS011;6166;42.806;23.408;2022-09-03T08:10:13;4.53;;;3.67;;
12206;SDS011;6166;42.806;23.408;2022-09-03T08:12:40;5.30;;;4.80;;
12206;SDS011;6166;42.806;23.408;2022-09-03T08:15:07;5.13;;;4.27;;
12206;SDS011;6166;42.806;23.408;2022-09-03T08:17:35;4.47;;;4.00;;
12206;SDS011;6166;42.806;23.408;2022-09-03T08:20:02;4.67;;;4.10;;
12206;SDS011;6166;42.806;23.408;2022-09-03T08:22:30;5.83;;;4.63;;
12206;SDS011;6166;42.806;23.408;2022-09-03T08:24:58;5.30;;;4.60;;
12206;SDS011;6166;42.806;23.408;2022-09-03T08:27:25;4.73;;;4.30;;
12206;SDS011;6166;42.806;23.408;2022-09-03T08:29:51;5.60;;;4.80;;
12206;SDS011;6166;42.806;23.408;2022-09-03T08:32:18;3.60;;;3.30;;
12206;SDS011;6166;42.806;23.408;2022-09-03T08:34:45;5.50;;;3.70;;
12206;SDS011;6166;42.806;23.408;2022-09-03T08:37:12;3.80;;;3.40;;
12206;SDS011;6166;42.806;23.408;2022-09-03T08:39:40;4.20;;;3.80;;
12206;SDS011;6166;42.806;23.408;2022-09-03T08:42:11;3.63;;;3.10;;
12206;SDS011;6166;42.806;23.408;2022-09-03T08:45:05;2.83;;;2.63;;
12206;SDS011;6166;42.806;23.408;2022-09-03T08:47:36;5.90;;;3.70;;
12206;SDS011;6166;42.806;23.408;2022-09-03T08:50:07;5.27;;;3.33;;
12206;SDS011;6166;42.806;23.408;2022-09-03T08:52:44;4.73;;;4.00;;
12206;SDS011;6166;42.806;23.408;2022-09-03T08:55:19;7.00;;;4.00;;
12206;SDS011;6166;42.806;23.408;2022-09-03T08:57:52;4.77;;;3.90;;
12206;SDS011;6166;42.806;23.408;2022-09-03T09:00:37;4.40;;;4.00;;
12206;SDS011;6166;42.806;23.408;2022-09-03T09:03:18;4.70;;;3.80;;
12206;SDS011;6166;42.806;23.408;2022-09-03T09:05:59;5.57;;;4.33;;
12206;SDS011;6166;42.806;23.408;2022-09-03T09:08:38;6.70;;;4.57;;
12206;SDS011;6166;42.806;23.408;2022-09-03T09:11:15;5.40;;;4.57;;
12206;SDS011;6166;42.806;23.408;2022-09-03T09:13:53;7.57;;;5.03;;
12206;SDS011;6166;42.806;23.408;2022-09-03T09:16:27;5.07;;;4.00;;
12206;SDS011;6166;42.806;23.408;2022-09-03T09:19:03;5.60;;;4.93;;
12206;SDS011;6166;42.806;23.408;2022-09-03T09:21:39;5.13;;;4.63;;
12206;SDS011;6166;42.806;23.408;2022-09-03T09:24:12;5.75;;;4.60;;
12206;SDS011;6166;42.806;23.408;2022-09-03T09:26:47;6.85;;;5.88;;
12206;SDS011;6166;42.806;23.408;2022-09-03T09:29:14;4.33;;;3.93;;
12206;SDS011;6166;42.806;23.408;2022-09-03T09:31:42;4.80;;;4.30;;
12206;SDS011;6166;42.806;23.408;2022-09-03T09:34:09;4.30;;;3.90;;
12206;SDS011;6166;42.806;23.408;2022-09-03T09:36:40;6.57;;;4.40;;
12206;SDS011;6166;42.806;23.408;2022-09-03T09:39:10;4.60;;;4.20;;
12206;SDS011;6166;42.806;23.408;2022-09-03T09:41:40;5.87;;;4.30;;
12206;SDS011;6166;42.806;23.408;2022-09-03T09:44:16;4.60;;;4.20;;
12206;SDS011;6166;42.806;23.408;2022-09-03T09:46:44;5.20;;;4.70;;
12206;SDS011;6166;42.806;23.408;2022-09-03T09:49:26;5.00;;;4.50;;
12206;SDS011;6166;42.806;23.408;2022-09-03T09:52:06;5.13;;;4.63;;
12206;SDS011;6166;42.806;23.408;2022-09-03T09:54:36;5.47;;;4.80;;
12206;SDS011;6166;42.806;23.408;2022-09-03T09:57:04;4.80;;;4.15;;
12206;SDS011;6166;42.806;23.408;2022-09-03T09:59:34;5.78;;;4.47;;
12206;SDS011;6166;42.806;23.408;2022-09-03T10:02:11;4.05;;;3.67;;
12206;SDS011;6166;42.806;23.408;2022-09-03T10:04:40;5.00;;;3.08;;
12206;SDS011;6166;42.806;23.408;2022-09-03T10:10:00;5.53;;;4.68;;
12206;SDS011;6166;42.806;23.408;2022-09-03T10:12:34;4.63;;;4.22;;
12206;SDS011;6166;42.806;23.408;2022-09-03T10:15:12;5.40;;;4.30;;
12206;SDS011;6166;42.806;23.408;2022-09-03T10:17:51;4.28;;;3.95;;
12206;SDS011;6166;42.806;23.408;2022-09-03T10:20:23;4.43;;;4.03;;
12206;SDS011;6166;42.806;23.408;2022-09-03T10:23:02;4.90;;;4.40;;
12206;SDS011;6166;42.806;23.408;2022-09-03T10:25:37;4.25;;;3.85;;
12206;SDS011;6166;42.806;23.408;2022-09-03T10:28:16;5.50;;;5.00;;
12206;SDS011;6166;42.806;23.408;2022-09-03T10:30:49;5.97;;;5.40;;
12206;SDS011;6166;42.806;23.408;2022-09-03T10:33:26;5.50;;;4.18;;
12206;SDS011;6166;42.806;23.408;2022-09-03T10:36:03;5.78;;;3.85;;
12206;SDS011;6166;42.806;23.408;2022-09-03T10:38:37;4.97;;;4.57;;
12206;SDS011;6166;42.806;23.408;2022-09-03T10:41:15;4.82;;;4.18;;
12206;SDS011;6166;42.806;23.408;2022-09-03T10:44:00;4.93;;;4.43;;
12206;SDS011;6166;42.806;23.408;2022-09-03T10:46:43;4.88;;;4.47;;
12206;SDS011;6166;42.806;23.408;2022-09-03T10:49:27;4.18;;;3.88;;
12206;SDS011;6166;42.806;23.408;2022-09-03T10:52:06;4.03;;;3.55;;
12206;SDS011;6166;42.806;23.408;2022-09-03T10:54:51;3.90;;;3.60;;
12206;SDS011;6166;42.806;23.408;2022-09-03T10:57:31;5.10;;;4.60;;
12206;SDS011;6166;42.806;23.408;2022-09-03T11:00:07;4.95;;;4.45;;
12206;SDS011;6166;42.806;23.408;2022-09-03T11:02:45;4.65;;;4.25;;
12206;SDS011;6166;42.806;23.408;2022-09-03T11:05:30;4.03;;;3.00;;
12206;SDS011;6166;42.806;23.408;2022-09-03T11:08:04;4.18;;;3.83;;
12206;SDS011;6166;42.806;23.408;2022-09-03T11:10:38;3.80;;;3.50;;
12206;SDS011;6166;42.806;23.408;2022-09-03T11:13:09;5.65;;;4.47;;
12206;SDS011;6166;42.806;23.408;2022-09-03T11:15:39;5.30;;;4.63;;
12206;SDS011;6166;42.806;23.408;2022-09-03T11:18:13;6.38;;;5.55;;
12206;SDS011;6166;42.806;23.408;2022-09-03T11:20:46;5.93;;;4.68;;
12206;SDS011;6166;42.806;23.408;2022-09-03T11:23:18;5.72;;;5.18;;
12206;SDS011;6166;42.806;23.408;2022-09-03T11:25:50;4.50;;;4.10;;
12206;SDS011;6166;42.806;23.408;2022-09-03T11:28:22;5.85;;;4.68;;
12206;SDS011;6166;42.806;23.408;2022-09-03T11:31:08;4.97;;;4.47;;
12206;SDS011;6166;42.806;23.408;2022-09-03T11:33:52;5.10;;;4.60;;
12206;SDS011;6166;42.806;23.408;2022-09-03T11:36:27;5.35;;;4.85;;
12206;SDS011;6166;42.806;23.408;2022-09-03T11:38:55;4.43;;;4.03;;
12206;SDS011;6166;42.806;23.408;2022-09-03T11:41:23;5.22;;;4.70;;
12206;SDS011;6166;42.806;23.408;2022-09-03T11:43:51;5.57;;;5.03;;
12206;SDS011;6166;42.806;23.408;2022-09-03T11:46:26;4.05;;;3.67;;
12206;SDS011;6166;42.806;23.408;2022-09-03T11:49:07;4.38;;;3.97;;
12206;SDS011;6166;42.806;23.408;2022-09-03T11:51:36;5.63;;;5.13;;
12206;SDS011;6166;42.806;23.408;2022-09-03T11:54:06;5.18;;;4.68;;
12206;SDS011;6166;42.806;23.408;2022-09-03T11:56:50;5.18;;;4.78;;
12206;SDS011;6166;42.806;23.408;2022-09-03T11:59:34;5.15;;;4.65;;
12206;SDS011;6166;42.806;23.408;2022-09-03T12:02:01;5.55;;;5.05;;
12206;SDS011;6166;42.806;23.408;2022-09-03T12:04:37;5.05;;;4.65;;
12206;SDS011;6166;42.806;23.408;2022-09-03T12:07:16;4.63;;;4.22;;
12206;SDS011;6166;42.806;23.408;2022-09-03T12:12:57;5.00;;;4.50;;
12206;SDS011;6166;42.806;23.408;2022-09-03T12:18:42;4.97;;;4.45;;
12206;SDS011;6166;42.806;23.408;2022-09-03T12:21:11;5.25;;;4.75;;
12206;SDS011;6166;42.806;23.408;2022-09-03T12:23:39;5.00;;;4.60;;
12206;SDS011;6166;42.806;23.408;2022-09-03T12:26:08;4.80;;;4.30;;
12206;SDS011;6166;42.806;23.408;2022-09-03T12:28:46;5.15;;;4.65;;
12206;SDS011;6166;42.806;23.408;2022-09-03T12:31:15;4.63;;;4.22;;
12206;SDS011;6166;42.806;23.408;2022-09-03T12:33:47;4.53;;;3.60;;
12206;SDS011;6166;42.806;23.408;2022-09-03T12:36:16;3.60;;;3.20;;
12206;SDS011;6166;42.806;23.408;2022-09-03T12:38:43;3.72;;;3.42;;
12206;SDS011;6166;42.806;23.408;2022-09-03T12:41:25;3.58;;;3.28;;
12206;SDS011;6166;42.806;23.408;2022-09-03T12:43:54;2.83;;;2.63;;
12206;SDS011;6166;42.806;23.408;2022-09-03T12:46:23;3.70;;;2.75;;
12206;SDS011;6166;42.806;23.408;2022-09-03T12:48:54;2.90;;;2.70;;
12206;SDS011;6166;42.806;23.408;2022-09-03T12:51:25;3.13;;;2.25;;
12206;SDS011;6166;42.806;23.408;2022-09-03T12:53:51;2.45;;;2.25;;
12206;SDS011;6166;42.806;23.408;2022-09-03T12:56:19;3.00;;;2.80;;
12206;SDS011;6166;42.806;23.408;2022-09-03T12:58:50;2.50;;;2.30;;
12206;SDS011;6166;42.806;23.408;2022-09-03T13:01:22;2.30;;;2.10;;
12206;SDS011;6166;42.806;23.408;2022-09-03T13:03:56;2.50;;;2.40;;
12206;SDS011;6166;42.806;23.408;2022-09-03T13:06:30;2.35;;;2.25;;
12206;SDS011;6166;42.806;23.408;2022-09-03T13:09:05;2.42;;;2.22;;
12206;SDS011;6166;42.806;23.408;2022-09-03T13:11:35;2.47;;;2.30;;
12206;SDS011;6166;42.806;23.408;2022-09-03T13:14:02;1.83;;;1.73;;
12206;SDS011;6166;42.806;23.408;2022-09-03T13:19:26;2.17;;;2.08;;
12206;SDS011;6166;42.806;23.408;2022-09-03T13:22:05;2.25;;;2.05;;
12206;SDS011;6166;42.806;23.408;2022-09-03T13:27:26;2.50;;;2.40;;
12206;SDS011;6166;42.806;23.408;2022-09-03T13:30:02;2.33;;;2.22;;
12206;SDS011;6166;42.806;23.408;2022-09-03T13:35:28;2.13;;;2.00;;
12206;SDS011;6166;42.806;23.408;2022-09-03T13:38:04;2.00;;;1.90;;
12206;SDS011;6166;42.806;23.408;2022-09-03T13:40:41;2.55;;;2.42;;
12206;SDS011;6166;42.806;23.408;2022-09-03T13:43:19;2.35;;;2.25;;
12206;SDS011;6166;42.806;23.408;2022-09-03T13:45:53;2.50;;;2.30;;
12206;SDS011;6166;42.806;23.408;2022-09-03T16:58:07;5.32;;;4.82;;
12206;SDS011;6166;42.806;23.408;2022-09-03T17:03:38;5.35;;;4.85;;
12206;SDS011;6166;42.806;23.408;2022-09-03T17:45:10;5.72;;;5.03;;
12206;SDS011;6166;42.806;23.408;2022-09-03T17:47:49;5.90;;;5.30;;
12206;SDS011;6166;42.806;23.408;2022-09-03T18:51:22;6.90;;;5.35;;
12206;SDS011;6166;42.806;23.408;2022-09-03T19:28:13;7.55;;;6.40;;
12206;SDS011;6166;42.806;23.408;2022-09-03T19:34:16;7.73;;;6.30;;
12206;SDS011;6166;42.806;23.408;2022-09-03T19:37:12;6.97;;;6.27;;
12206;SDS011;6166;42.806;23.408;2022-09-03T19:40:05;6.72;;;6.03;;
12206;SDS011;6166;42.806;23.408;2022-09-03T19:43:08;6.28;;;5.57;;
12206;SDS011;6166;42.806;23.408;2022-09-03T19:46:02;6.20;;;5.60;;
12206;SDS011;6166;42.806;23.408;2022-09-03T19:48:57;8.77;;;6.28;;
12206;SDS011;6166;42.806;23.408;2022-09-03T19:51:50;9.83;;;7.03;;
12206;SDS011;6166;42.806;23.408;2022-09-03T19:54:42;9.67;;;8.67;;
12206;SDS011;6166;42.806;23.408;2022-09-03T19:57:27;9.60;;;8.38;;
12206;SDS011;6166;42.806;23.408;2022-09-03T20:00:14;10.17;;;8.70;;
12206;SDS011;6166;42.806;23.408;2022-09-03T20:02:58;12.30;;;8.95;;
12206;SDS011;6166;42.806;23.408;2022-09-03T20:05:44;9.88;;;8.57;;
12206;SDS011;6166;42.806;23.408;2022-09-03T20:08:28;7.78;;;6.97;;
12206;SDS011;6166;42.806;23.408;2022-09-03T20:11:16;10.25;;;7.15;;
12206;SDS011;6166;42.806;23.408;2022-09-03T20:13:44;8.15;;;7.30;;
12206;SDS011;6166;42.806;23.408;2022-09-03T20:16:30;7.55;;;6.75;;
12206;SDS011;6166;42.806;23.408;2022-09-03T20:19:02;7.90;;;6.75;;
12206;SDS011;6166;42.806;23.408;2022-09-03T20:21:37;7.97;;;5.57;;
12206;SDS011;6166;42.806;23.408;2022-09-03T20:24:11;7.97;;;7.18;;
12206;SDS011;6166;42.806;23.408;2022-09-03T20:26:52;7.57;;;6.03;;
12206;SDS011;6166;42.806;23.408;2022-09-03T20:29:39;7.80;;;7.03;;
12206;SDS011;6166;42.806;23.408;2022-09-03T20:32:17;6.87;;;6.07;;
12206;SDS011;6166;42.806;23.408;2022-09-03T20:34:55;8.00;;;7.17;;
12206;SDS011;6166;42.806;23.408;2022-09-03T20:37:30;7.50;;;6.70;;
12206;SDS011;6166;42.806;23.408;2022-09-03T20:40:14;8.48;;;7.40;;
12206;SDS011;6166;42.806;23.408;2022-09-03T20:42:53;7.87;;;7.03;;
12206;SDS011;6166;42.806;23.408;2022-09-03T20:45:35;7.40;;;6.20;;
12206;SDS011;6166;42.806;23.408;2022-09-03T20:48:19;8.47;;;6.90;;
12206;SDS011;6166;42.806;23.408;2022-09-03T20:50:54;7.03;;;5.90;;
12206;SDS011;6166;42.806;23.408;2022-09-03T20:53:32;6.73;;;6.03;;
12206;SDS011;6166;42.806;23.408;2022-09-03T20:56:24;6.60;;;5.97;;
12206;SDS011;6166;42.806;23.408;2022-09-03T20:58:57;8.97;;;7.27;;
12206;SDS011;6166;42.806;23.408;2022-09-03T21:01:29;8.67;;;7.43;;
12206;SDS011;6166;42.806;23.408;2022-09-03T21:04:11;9.33;;;7.77;;
12206;SDS011;6166;42.806;23.408;2022-09-03T21:06:49;11.50;;;9.45;;
12206;SDS011;6166;42.806;23.408;2022-09-03T21:09:27;9.77;;;8.20;;
12206;SDS011;6166;42.806;23.408;2022-09-03T21:12:05;10.40;;;8.10;;
12206;SDS011;6166;42.806;23.408;2022-09-03T21:14:38;8.30;;;7.30;;
12206;SDS011;6166;42.806;23.408;2022-09-03T21:17:21;9.03;;;6.90;;
12206;SDS011;6166;42.806;23.408;2022-09-03T21:20:02;8.67;;;7.03;;
12206;SDS011;6166;42.806;23.408;2022-09-03T21:22:41;7.43;;;6.47;;
12206;SDS011;6166;42.806;23.408;2022-09-03T21:25:17;7.63;;;6.47;;
12206;SDS011;6166;42.806;23.408;2022-09-03T21:27:47;7.00;;;6.13;;
12206;SDS011;6166;42.806;23.408;2022-09-03T21:30:18;7.53;;;5.90;;
12206;SDS011;6166;42.806;23.408;2022-09-03T21:32:46;7.47;;;5.87;;
12206;SDS011;6166;42.806;23.408;2022-09-03T21:35:22;5.97;;;5.37;;
12206;SDS011;6166;42.806;23.408;2022-09-03T21:37:54;7.47;;;6.30;;
12206;SDS011;6166;42.806;23.408;2022-09-03T21:40:25;6.77;;;6.07;;
12206;SDS011;6166;42.806;23.408;2022-09-03T21:42:55;10.98;;;7.43;;
12206;SDS011;6166;42.806;23.408;2022-09-03T21:45:30;10.27;;;7.70;;
12206;SDS011;6166;42.806;23.408;2022-09-03T21:48:04;10.37;;;7.77;;
12206;SDS011;6166;42.806;23.408;2022-09-03T21:50:38;11.07;;;8.03;;
12206;SDS011;6166;42.806;23.408;2022-09-03T21:53:11;11.40;;;7.87;;
12206;SDS011;6166;42.806;23.408;2022-09-03T21:55:46;9.37;;;7.73;;
12206;SDS011;6166;42.806;23.408;2022-09-03T21:58:30;9.37;;;7.83;;
12206;SDS011;6166;42.806;23.408;2022-09-03T22:01:13;9.43;;;8.20;;
12206;SDS011;6166;42.806;23.408;2022-09-03T22:03:44;8.77;;;7.83;;
12206;SDS011;6166;42.806;23.408;2022-09-03T22:06:13;7.20;;;6.50;;
12206;SDS011;6166;42.806;23.408;2022-09-03T22:08:44;9.93;;;6.43;;
12206;SDS011;6166;42.806;23.408;2022-09-03T22:11:17;6.90;;;6.20;;
12206;SDS011;6166;42.806;23.408;2022-09-03T22:13:55;7.20;;;5.67;;
12206;SDS011;6166;42.806;23.408;2022-09-03T22:16:29;6.40;;;5.40;;
12206;SDS011;6166;42.806;23.408;2022-09-03T22:19:00;8.30;;;5.93;;
12206;SDS011;6166;42.806;23.408;2022-09-03T22:21:28;6.30;;;5.70;;
12206;SDS011;6166;42.806;23.408;2022-09-03T22:24:02;7.97;;;6.00;;
12206;SDS011;6166;42.806;23.408;2022-09-03T22:26:39;8.63;;;6.50;;
12206;SDS011;6166;42.806;23.408;2022-09-03T22:29:12;6.93;;;5.97;;
12206;SDS011;6166;42.806;23.408;2022-09-03T22:31:48;6.70;;;6.00;;
12206;SDS011;6166;42.806;23.408;2022-09-03T22:34:28;7.53;;;6.67;;
12206;SDS011;6166;42.806;23.408;2022-09-03T22:37:12;5.83;;;5.03;;
12206;SDS011;6166;42.806;23.408;2022-09-03T22:39:49;8.50;;;6.97;;
12206;SDS011;6166;42.806;23.408;2022-09-03T22:42:22;8.27;;;6.73;;
12206;SDS011;6166;42.806;23.408;2022-09-03T22:45:07;7.10;;;5.50;;
12206;SDS011;6166;42.806;23.408;2022-09-03T22:47:56;8.03;;;6.50;;
12206;SDS011;6166;42.806;23.408;2022-09-03T22:50:32;6.93;;;6.03;;
12206;SDS011;6166;42.806;23.408;2022-09-03T22:53:10;7.87;;;6.87;;
12206;SDS011;6166;42.806;23.408;2022-09-03T22:55:48;6.53;;;5.93;;
12206;SDS011;6166;42.806;23.408;2022-09-03T22:58:25;7.00;;;6.30;;
12206;SDS011;6166;42.806;23.408;2022-09-03T23:00:56;7.67;;;6.00;;
12206;SDS011;6166;42.806;23.408;2022-09-03T23:03:30;6.73;;;6.03;;
12206;SDS011;6166;42.806;23.408;2022-09-03T23:06:03;6.10;;;5.50;;
12206;SDS011;6166;42.806;23.408;2022-09-03T23:08:35;7.90;;;6.27;;
12206;SDS011;6166;42.806;23.408;2022-09-03T23:11:08;6.40;;;5.80;;
12206;SDS011;6166;42.806;23.408;2022-09-03T23:13:49;6.67;;;5.97;;
12206;SDS011;6166;42.806;23.408;2022-09-03T23:16:23;7.37;;;5.60;;
12206;SDS011;6166;42.806;23.408;2022-09-03T23:18:56;6.87;;;6.17;;
12206;SDS011;6166;42.806;23.408;2022-09-03T23:21:29;6.10;;;5.50;;
12206;SDS011;6166;42.806;23.408;2022-09-03T23:24:06;6.67;;;5.80;;
12206;SDS011;6166;42.806;23.408;2022-09-03T23:26:38;6.67;;;5.80;;
12206;SDS011;6166;42.806;23.408;2022-09-03T23:29:10;6.93;;;5.90;;
12206;SDS011;6166;42.806;23.408;2022-09-03T23:31:40;10.07;;;6.57;;
12206;SDS011;6166;42.806;23.408;2022-09-03T23:34:07;7.57;;;5.60;;
12206;SDS011;6166;42.806;23.408;2022-09-03T23:36:47;7.23;;;6.20;;
12206;SDS011;6166;42.806;23.408;2022-09-03T23:39:35;6.93;;;5.97;;
12206;SDS011;6166;42.806;23.408;2022-09-03T23:42:15;7.47;;;6.47;;
12206;SDS011;6166;42.806;23.408;2022-09-03T23:44:53;7.50;;;6.53;;
12206;SDS011;6166;42.806;23.408;2022-09-03T23:47:32;9.20;;;6.20;;
12206;SDS011;6166;42.806;23.408;2022-09-03T23:50:07;7.37;;;6.20;;
12206;SDS011;6166;42.806;23.408;2022-09-03T23:52:50;6.80;;;5.60;;
12206;SDS011;6166;42.806;23.408;2022-09-03T23:55:31;6.47;;;5.63;;
12206;SDS011;6166;42.806;23.408;2022-09-03T23:58:14;9.77;;;6.03;;
